Time;durP1;ratioP1;P1;durP2;ratioP2;P2;SDS_P1;SDS_P2;PMS_P1;PMS_P2;Temp;Humidity;BMP_temperature;BMP_pressure;BME280_temperature;BME280_humidity;BME280_pressure;Samples;Min_cycle;Max_cycle;Signal;HPM_P1;HPM_P2
2022/03/12 00:00:07;;;;;;;4.65;2.90;;;;;;;-1.92;36.65;99052.56;4171807;28;20029;-71
2022/03/12 00:02:07;;;;;;;3.67;2.63;;;;;;;-1.96;37.56;99057.75;4169546;28;20025;-70
2022/03/12 00:04:08;;;;;;;4.40;2.63;;;;;;;-2.00;36.96;99056.66;4169243;28;20261;-70
2022/03/12 00:06:09;;;;;;;3.83;2.80;;;;;;;-2.00;36.23;99052.06;4169377;28;20095;-71
2022/03/12 00:08:12;;;;;;;4.72;2.78;;;;;;;-2.01;36.66;99065.91;4169222;28;20036;-70
2022/03/12 00:10:16;;;;;;;6.30;3.15;;;;;;;-2.04;36.61;99067.28;4169564;28;20029;-70
2022/03/12 00:12:19;;;;;;;6.18;2.70;;;;;;;-2.09;36.35;99061.06;4177849;28;20199;-70
2022/03/12 00:14:22;;;;;;;4.80;2.85;;;;;;;-2.10;37.25;99062.16;4184367;28;20042;-70
2022/03/12 00:16:24;;;;;;;4.97;2.92;;;;;;;-2.13;37.14;99074.38;4184528;28;20120;-70
2022/03/12 00:18:31;;;;;;;5.70;2.87;;;;;;;-2.11;36.95;99074.91;4183971;28;20113;-70
2022/03/12 00:20:33;;;;;;;4.38;2.55;;;;;;;-2.12;37.03;99080.63;4170106;28;20295;-71
2022/03/12 00:22:37;;;;;;;6.28;3.28;;;;;;;-2.08;41.72;99081.66;4169536;28;20033;-70
2022/03/12 00:24:40;;;;;;;4.50;2.40;;;;;;;-2.06;41.26;99083.03;4174926;28;20033;-70
2022/03/12 00:26:43;;;;;;;4.90;2.75;;;;;;;-2.06;43.50;99079.50;4168645;28;20136;-71
2022/03/12 00:28:44;;;;;;;;;;;;;;;-2.06;43.21;99085.75;4172117;28;20048;-70
2022/03/12 00:30:47;;;;;;;4.10;2.88;;;;;;;-2.08;45.45;99081.66;4184851;28;20356;-70
2022/03/12 00:32:49;;;;;;;5.05;2.60;;;;;;;-2.10;45.00;99086.56;4182475;28;20043;-70
2022/03/12 00:34:49;;;;;;;5.78;3.25;;;;;;;-2.19;42.41;99069.28;4173986;28;20048;-70
2022/03/12 00:36:49;;;;;;;5.32;2.92;;;;;;;-2.30;41.83;99073.94;4183594;28;20051;-70
2022/03/12 00:38:50;;;;;;;4.45;2.60;;;;;;;-2.39;42.46;99079.16;4184658;28;20097;-70
2022/03/12 00:40:51;;;;;;;5.25;2.63;;;;;;;-2.48;44.95;99086.25;4184304;28;20041;-70
2022/03/12 00:42:52;;;;;;;5.22;2.83;;;;;;;-2.60;42.71;99083.81;4176269;28;20456;-70
2022/03/12 00:44:52;;;;;;;4.07;2.47;;;;;;;-2.66;44.22;99090.34;4175329;28;20131;-70
2022/03/12 00:46:52;;;;;;;6.32;2.50;;;;;;;-2.72;43.48;99091.47;4180254;28;20052;-70
2022/03/12 00:48:53;;;;;;;7.05;3.15;;;;;;;-2.82;43.30;99086.06;4187535;28;20044;-71
2022/03/12 00:50:53;;;;;;;5.70;3.10;;;;;;;-2.89;44.76;99088.28;4187076;28;20120;-70
2022/03/12 00:52:53;;;;;;;5.82;3.00;;;;;;;-2.93;46.10;99087.19;4187054;28;20047;-70
2022/03/12 00:54:54;;;;;;;6.07;2.92;;;;;;;-2.96;45.01;99088.56;4185647;28;20044;-70
2022/03/12 00:56:54;;;;;;;5.95;3.20;;;;;;;-2.96;45.47;99085.84;4172235;28;20036;-70
2022/03/12 00:58:55;;;;;;;6.30;3.22;;;;;;;-2.95;48.64;99089.38;4187802;28;20049;-70
2022/03/12 01:00:56;;;;;;;5.43;2.72;;;;;;;-2.90;48.48;99078.50;4177088;28;20048;-70
2022/03/12 01:02:56;;;;;;;5.30;3.10;;;;;;;-2.88;48.26;99073.66;4171638;28;20437;-70
2022/03/12 01:04:56;;;;;;;4.07;2.90;;;;;;;-2.91;46.62;99079.59;4172102;28;20080;-70
2022/03/12 01:06:57;;;;;;;4.78;3.10;;;;;;;-2.95;47.46;99073.94;4183354;28;20073;-70
2022/03/12 01:08:57;;;;;;;4.43;2.55;;;;;;;-2.96;45.21;99072.31;4172036;28;20235;-70
2022/03/12 01:11:00;;;;;;;3.85;2.40;;;;;;;-3.00;47.06;99073.94;4172681;28;20448;-70
2022/03/12 01:13:01;;;;;;;4.47;2.47;;;;;;;-3.05;44.68;99084.78;4186869;28;20045;-70
2022/03/12 01:15:02;;;;;;;4.18;2.83;;;;;;;-3.14;44.18;99072.91;4186483;28;20298;-70
2022/03/12 01:17:03;;;;;;;13.30;3.10;;;;;;;-3.18;45.14;99078.03;4183083;28;20037;-70
2022/03/12 01:19:03;;;;;;;5.53;2.85;;;;;;;-3.27;44.07;99071.56;4172010;28;20045;-70
2022/03/12 01:21:17;;;;;;;5.45;3.15;;;;;;;-3.29;43.92;99079.16;4178374;28;20041;-70
2022/03/12 01:23:24;;;;;;;5.97;2.80;;;;;;;-3.36;43.44;99088.63;4180787;28;20345;-70
2022/03/12 01:25:26;;;;;;;5.97;2.88;;;;;;;-3.30;47.84;99082.13;4171843;28;20096;-70
2022/03/12 01:27:26;;;;;;;3.67;2.75;;;;;;;-3.30;47.77;99079.44;4171301;28;20190;-70
2022/03/12 01:29:27;;;;;;;3.97;2.50;;;;;;;-3.32;47.11;99076.97;4171487;28;20056;-70
2022/03/12 01:31:27;;;;;;;5.68;2.60;;;;;;;-3.39;47.07;99079.16;4171201;28;20041;-70
2022/03/12 01:33:28;;;;;;;4.90;2.58;;;;;;;-3.44;47.53;99076.47;4171729;28;20420;-70
2022/03/12 01:35:29;;;;;;;5.25;2.60;;;;;;;-3.52;47.10;99072.41;4177320;28;20048;-71
2022/03/12 01:37:29;;;;;;;4.45;2.80;;;;;;;-3.58;45.24;99073.47;4177444;28;20099;-71
2022/03/12 01:39:30;;;;;;;4.65;3.03;;;;;;;-3.66;46.97;99071.31;4175589;28;20497;-71
2022/03/12 01:41:32;;;;;;;6.15;2.65;;;;;;;-3.76;47.90;99074.84;4172383;28;20051;-71
2022/03/12 01:43:36;;;;;;;4.18;2.58;;;;;;;-3.86;47.75;99074.84;4181212;28;20455;-70
2022/03/12 01:45:37;;;;;;;4.75;3.08;;;;;;;-3.91;47.23;99074.00;4186183;28;20053;-71
2022/03/12 01:47:38;;;;;;;4.70;2.58;;;;;;;-3.93;47.14;99073.47;4170954;28;20040;-71
2022/03/12 01:49:39;;;;;;;6.97;2.88;;;;;;;-3.95;48.73;99065.63;4171231;28;20044;-71
2022/03/12 01:51:41;;;;;;;5.57;2.63;;;;;;;-3.97;47.44;99071.31;4170910;28;20550;-71
2022/03/12 01:53:42;;;;;;;;;;;;;;;-3.95;48.83;99068.34;4170769;28;20392;-71
2022/03/12 01:55:43;;;;;;;4.47;2.50;;;;;;;-3.98;47.87;99063.44;4170987;28;19920;-71
2022/03/12 01:57:43;;;;;;;6.13;3.13;;;;;;;-3.98;48.88;99064.25;4170728;28;20037;-72
2022/03/12 01:59:44;;;;;;;5.07;3.00;;;;;;;-4.01;48.91;99059.41;4170620;28;20396;-71
2022/03/12 02:01:45;;;;;;;5.03;2.60;;;;;;;-4.12;47.46;99062.38;4185411;28;20056;-70
2022/03/12 02:03:47;;;;;;;4.72;3.17;;;;;;;-4.21;50.06;99061.28;4186775;28;20402;-70
2022/03/12 02:05:47;;;;;;;5.47;3.05;;;;;;;-4.26;49.29;99053.97;4176949;28;20037;-71
2022/03/12 02:07:47;;;;;;;6.05;3.28;;;;;;;-4.32;49.46;99060.41;4182318;28;20132;-71
2022/03/12 02:09:49;;;;;;;6.22;3.20;;;;;;;-4.41;49.03;99051.22;4175053;28;20432;-71
2022/03/12 02:11:51;;;;;;;4.82;3.00;;;;;;;-4.48;49.54;99061.44;4176126;28;20044;-71
2022/03/12 02:14:08;;;;;;;5.47;2.92;;;;;;;-4.54;49.10;99056.06;4184255;28;20538;-71
2022/03/12 02:16:09;;;;;;;5.50;3.17;;;;;;;-4.62;52.07;99059.28;4174236;28;20041;-72
2022/03/12 02:18:13;;;;;;;4.53;3.20;;;;;;;-4.68;52.80;99054.09;4185317;28;20364;-71
2022/03/12 02:20:18;;;;;;;6.28;3.20;;;;;;;-4.75;52.84;99057.03;4186790;28;20283;-71
2022/03/12 02:22:18;;;;;;;8.02;3.30;;;;;;;-4.79;53.66;99049.75;4184948;28;20025;-71
2022/03/12 02:24:21;;;;;;;5.72;3.20;;;;;;;-4.78;54.46;99046.78;4185273;28;20029;-72
2022/03/12 02:26:22;;;;;;;7.10;3.13;;;;;;;-4.72;53.91;99044.91;4184952;28;20043;-71
2022/03/12 02:28:22;;;;;;;5.93;3.22;;;;;;;-4.72;53.57;99039.50;4170309;28;20076;-71
2022/03/12 02:30:28;;;;;;;6.10;3.13;;;;;;;-4.76;53.88;99031.13;4170382;28;20086;-72
2022/03/12 02:32:29;;;;;;;5.38;3.28;;;;;;;-4.84;54.16;99031.63;4179799;28;20291;-71
2022/03/12 02:34:35;;;;;;;6.38;3.92;;;;;;;-4.89;54.64;99039.69;4185196;28;20465;-71
2022/03/12 02:36:35;;;;;;;7.45;4.15;;;;;;;-4.85;55.71;99040.81;4169841;28;20538;-71
2022/03/12 02:38:35;;;;;;;7.82;3.83;;;;;;;-4.80;54.75;99027.31;4170515;28;20397;-71
2022/03/12 02:40:36;;;;;;;8.18;3.70;;;;;;;-4.76;54.03;99027.63;4170296;28;20041;-71
2022/03/12 02:42:39;;;;;;;7.13;3.80;;;;;;;-4.79;54.68;99023.56;4181149;28;20040;-71
2022/03/12 02:44:40;;;;;;;8.52;4.13;;;;;;;-4.79;55.19;99023.56;4177062;28;20128;-71
2022/03/12 02:46:40;;;;;;;9.32;4.05;;;;;;;-4.79;54.28;99026.28;4169949;28;20084;-72
2022/03/12 02:48:48;;;;;;;6.43;3.60;;;;;;;-4.79;54.07;99028.16;4170218;28;20473;-71
2022/03/12 02:50:48;;;;;;;9.02;4.03;;;;;;;-4.84;53.01;99026.25;4170069;28;20040;-71
2022/03/12 02:52:49;;;;;;;8.25;3.75;;;;;;;-4.88;53.29;99025.97;4179962;28;20041;-71
2022/03/12 02:54:51;;;;;;;7.18;3.67;;;;;;;-4.87;53.10;99018.69;4185669;28;20067;-71
2022/03/12 02:56:51;;;;;;;7.50;3.10;;;;;;;-4.93;51.65;99017.84;4184738;28;20530;-71
2022/03/12 02:58:53;;;;;;;5.82;3.28;;;;;;;-5.02;52.60;99016.72;4182906;28;20049;-71
2022/03/12 03:00:53;;;;;;;5.13;3.20;;;;;;;-5.09;52.38;99025.06;4170213;28;20460;-71
2022/03/12 03:02:54;;;;;;;5.82;3.03;;;;;;;-5.17;53.39;99014.75;4170631;28;20037;-71
2022/03/12 03:04:54;;;;;;;5.82;3.97;;;;;;;-5.16;53.95;99020.97;4169990;28;20043;-71
2022/03/12 03:07:00;;;;;;;7.25;4.32;;;;;;;-5.17;53.15;99019.34;4169640;28;20574;-71
2022/03/12 03:09:00;;;;;;;7.07;4.05;;;;;;;-5.15;53.60;99030.69;4180093;28;20837;-71
2022/03/12 03:11:01;;;;;;;7.10;3.28;;;;;;;-5.21;51.85;99018.25;4173493;28;20045;-71
2022/03/12 03:13:16;;;;;;;6.45;3.33;;;;;;;-5.26;52.42;99018.22;4179941;28;20047;-71
2022/03/12 03:15:18;;;;;;;9.75;4.25;;;;;;;-5.33;52.82;99025.72;4170118;28;20059;-71
2022/03/12 03:17:18;;;;;;;8.60;3.80;;;;;;;-5.34;57.02;99024.09;4169448;28;20043;-71
2022/03/12 03:19:25;;;;;;;7.72;3.25;;;;;;;-5.43;57.67;99024.59;4170011;28;21000;-71
2022/03/12 03:21:26;;;;;;;7.22;3.63;;;;;;;-5.50;57.32;99015.13;4183099;28;20096;-71
2022/03/12 03:23:30;;;;;;;7.72;4.25;;;;;;;-5.58;56.66;99002.13;4175569;28;20049;-71
2022/03/12 03:25:30;;;;;;;5.65;3.80;;;;;;;-5.61;57.15;99022.34;4170177;28;20040;-71
2022/03/12 03:27:31;;;;;;;8.52;4.32;;;;;;;-5.61;57.57;99026.91;4169025;28;20048;-71
2022/03/12 03:29:33;;;;;;;14.90;5.88;;;;;;;-5.67;57.20;99029.56;4169748;28;20304;-71
2022/03/12 03:31:34;;;;;;;25.30;8.48;;;;;;;-5.64;56.51;99030.91;4169674;28;20045;-71
2022/03/12 03:33:34;;;;;;;26.55;10.70;;;;;;;-5.63;55.22;99024.44;4170168;28;20323;-71
2022/03/12 03:35:36;;;;;;;34.40;11.65;;;;;;;-5.65;56.15;99021.22;4169903;28;20128;-71
2022/03/12 03:37:36;;;;;;;57.15;16.30;;;;;;;-5.62;55.36;99026.09;4175246;28;20462;-71
2022/03/12 03:39:39;;;;;;;51.20;16.45;;;;;;;-5.67;53.71;99031.44;4185463;28;20078;-71
2022/03/12 03:41:39;;;;;;;27.90;9.43;;;;;;;-5.74;54.52;99028.97;4176820;28;20045;-71
2022/03/12 03:43:45;;;;;;;17.52;7.18;;;;;;;-5.68;56.16;99038.72;4169335;28;20041;-71
2022/03/12 03:45:48;;;;;;;28.17;9.05;;;;;;;-5.65;55.77;99024.72;4169824;28;20049;-72
2022/03/12 03:47:50;;;;;;;18.77;8.00;;;;;;;-5.68;55.66;99027.94;4184043;28;20115;-71
2022/03/12 03:49:50;;;;;;;28.83;8.63;;;;;;;-5.68;54.87;99022.56;4184078;28;20148;-71
2022/03/12 03:51:52;;;;;;;24.95;10.02;;;;;;;-5.62;56.63;99030.69;4173760;28;20068;-71
2022/03/12 03:53:52;;;;;;;18.35;7.95;;;;;;;-5.57;55.63;99033.41;4178057;28;20097;-71
2022/03/12 03:55:55;;;;;;;18.38;7.63;;;;;;;-5.49;56.03;99038.31;4183341;28;20519;-71
2022/03/12 03:57:56;;;;;;;13.50;6.00;;;;;;;-5.49;55.35;99032.91;4183484;28;20450;-71
2022/03/12 03:59:56;;;;;;;14.93;5.57;;;;;;;-5.51;55.14;99037.75;4171116;28;20075;-71
2022/03/12 04:01:57;;;;;;;10.25;3.85;;;;;;;-5.56;56.01;99037.72;4167420;28;20169;-71
2022/03/12 04:03:58;;;;;;;11.15;4.25;;;;;;;-5.61;55.17;99038.50;4171684;28;20491;-71
2022/03/12 04:06:01;;;;;;;8.55;4.38;;;;;;;-5.63;54.36;99048.72;4171529;28;20481;-71
2022/03/12 04:08:03;;;;;;;7.57;3.50;;;;;;;-5.62;56.23;99054.94;4178755;28;20511;-72
2022/03/12 04:10:04;;;;;;;10.85;4.00;;;;;;;-5.57;55.84;99060.34;4176583;28;20032;-72
2022/03/12 04:12:04;;;;;;;8.77;3.22;;;;;;;-5.55;56.22;99059.03;4171485;28;20033;-72
2022/03/12 04:14:05;;;;;;;9.35;3.80;;;;;;;-5.57;55.79;99055.78;4169756;28;20392;-71
2022/03/12 04:16:06;;;;;;;9.48;3.10;;;;;;;-5.63;55.95;99056.81;4171418;28;20042;-72
2022/03/12 04:18:07;;;;;;;8.75;3.78;;;;;;;-5.62;57.16;99061.16;4173487;28;20104;-72
2022/03/12 04:20:09;;;;;;;7.10;3.35;;;;;;;-5.62;56.11;99063.84;4175593;28;20069;-72
2022/03/12 04:22:09;;;;;;;9.63;3.92;;;;;;;-5.58;56.57;99050.66;4183712;28;20496;-72
2022/03/12 04:24:09;;;;;;;7.28;3.75;;;;;;;-5.56;55.43;99061.97;4186991;28;20037;-72
2022/03/12 04:26:10;;;;;;;6.28;3.40;;;;;;;-5.47;56.93;99060.41;4182979;28;20024;-71
2022/03/12 04:28:11;;;;;;;7.50;3.88;;;;;;;-5.43;56.24;99075.03;4171765;28;20115;-72
2022/03/12 04:30:13;;;;;;;7.22;3.60;;;;;;;-5.37;57.41;99069.41;4172247;28;20083;-72
2022/03/12 04:32:14;;;;;;;6.93;3.20;;;;;;;-5.30;57.20;99068.34;4172157;28;20021;-72
2022/03/12 04:34:15;;;;;;;7.03;3.78;;;;;;;-5.27;55.20;99062.47;4187348;28;20072;-72
2022/03/12 04:36:15;;;;;;;5.80;3.10;;;;;;;-5.32;54.62;99073.22;4174063;28;20700;-72
2022/03/12 04:38:16;;;;;;;6.45;3.38;;;;;;;-5.39;54.39;99070.72;4171173;28;20112;-71
2022/03/12 04:40:22;;;;;;;7.97;3.80;;;;;;;-5.45;54.43;99069.91;4172007;28;20611;-71
2022/03/12 04:42:22;;;;;;;6.63;3.42;;;;;;;-5.48;55.18;99072.28;4177588;28;20550;-71
2022/03/12 04:44:22;;;;;;;6.40;4.00;;;;;;;-5.46;56.80;99078.22;4175928;28;20045;-71
2022/03/12 04:46:23;;;;;;;9.93;4.65;;;;;;;-5.50;55.68;99083.34;4176966;28;20321;-72
2022/03/12 04:48:23;;;;;;;18.23;7.15;;;;;;;-5.53;56.41;99074.97;4171539;28;20457;-71
2022/03/12 04:50:24;;;;;;;21.05;8.43;;;;;;;-5.50;56.42;99077.94;4172484;28;20132;-71
2022/03/12 04:52:24;;;;;;;21.52;7.40;;;;;;;-5.48;56.46;99080.38;4171936;28;20037;-71
2022/03/12 04:54:31;;;;;;;20.13;6.38;;;;;;;-5.43;56.75;99080.41;4171986;28;20143;-72
2022/03/12 04:56:32;;;;;;;15.73;6.70;;;;;;;-5.34;58.45;99086.16;4184925;28;20041;-72
2022/03/12 04:58:32;;;;;;;16.80;6.50;;;;;;;-5.31;58.13;99091.00;4186678;28;20383;-72
2022/03/12 05:00:38;;;;;;;11.30;5.30;;;;;;;-5.30;56.80;99092.63;4181471;28;20480;-72
2022/03/12 05:02:38;;;;;;;16.25;5.90;;;;;;;-5.33;57.04;99093.97;4171910;28;20397;-71
2022/03/12 05:04:38;;;;;;;12.73;5.20;;;;;;;-5.37;54.66;99095.56;4172168;28;20037;-71
2022/03/12 05:06:39;;;;;;;12.75;4.40;;;;;;;-5.45;54.95;99086.09;4171477;28;20488;-71
2022/03/12 05:08:39;;;;;;;7.72;4.32;;;;;;;-5.52;55.17;99085.50;4186851;28;20044;-71
2022/03/12 05:10:41;;;;;;;9.07;4.40;;;;;;;-5.60;54.66;99098.63;4177269;28;20049;-71
2022/03/12 05:12:41;;;;;;;5.60;3.15;;;;;;;-5.70;55.85;99099.38;4175542;28;20044;-72
2022/03/12 05:14:49;;;;;;;8.23;4.15;;;;;;;-5.74;57.27;99096.34;4173596;28;20413;-71
2022/03/12 05:16:50;;;;;;;7.85;4.10;;;;;;;-5.73;58.76;99097.16;4178216;28;20353;-72
2022/03/12 05:18:50;;;;;;;9.38;3.95;;;;;;;-5.76;57.86;99100.38;4172289;28;20144;-72
2022/03/12 05:20:52;;;;;;;5.75;3.35;;;;;;;-5.82;57.97;99104.91;4180390;28;20441;-71
2022/03/12 05:22:53;;;;;;;10.32;4.68;;;;;;;-5.87;59.01;99104.88;4174312;28;20135;-72
2022/03/12 05:24:53;;;;;;;8.00;3.85;;;;;;;-5.88;58.71;99111.31;4177985;28;20396;-71
2022/03/12 05:26:54;;;;;;;10.60;5.00;;;;;;;-5.87;59.70;99095.97;4171085;28;20073;-71
2022/03/12 05:28:54;;;;;;;7.95;3.53;;;;;;;-5.93;59.19;99105.94;4171472;28;20044;-72
2022/03/12 05:30:59;;;;;;;7.20;3.92;;;;;;;-5.97;60.74;99115.56;4170834;28;20490;-71
2022/03/12 05:32:59;;;;;;;10.13;3.92;;;;;;;-6.03;62.13;99117.44;4172008;28;20049;-72
2022/03/12 05:34:59;;;;;;;7.30;3.60;;;;;;;-6.04;61.22;99113.09;4171559;28;20393;-72
2022/03/12 05:37:01;;;;;;;9.40;3.70;;;;;;;-6.07;62.07;99118.16;4170787;28;20171;-72
2022/03/12 05:39:03;;;;;;;8.18;3.35;;;;;;;-6.01;61.60;99125.25;4170935;28;20723;-72
2022/03/12 05:41:11;;;;;;;5.85;3.67;;;;;;;-5.98;62.91;99128.22;4179042;28;20498;-72
2022/03/12 05:43:13;;;;;;;4.63;3.13;;;;;;;-5.98;64.03;99124.72;4171234;28;20043;-71
2022/03/12 05:45:17;;;;;;;5.40;3.75;;;;;;;-6.01;64.10;99130.63;4171343;28;20041;-72
2022/03/12 05:47:18;;;;;;;7.65;4.25;;;;;;;-6.05;63.46;99130.31;4170700;28;20477;-71
2022/03/12 05:49:19;;;;;;;4.85;3.13;;;;;;;-6.06;64.54;99135.97;4171620;28;20048;-71
2022/03/12 05:51:19;;;;;;;9.68;3.22;;;;;;;-6.07;63.69;99139.72;4176248;28;20395;-71
2022/03/12 05:53:19;;;;;;;4.75;3.20;;;;;;;-6.12;63.79;99131.56;4181429;28;20554;-71
2022/03/12 05:55:22;;;;;;;6.40;3.35;;;;;;;-6.10;63.86;99142.94;4171331;28;20110;-72
2022/03/12 05:57:22;;;;;;;;;;;;;;;-6.09;63.69;99141.88;4171419;28;20045;-71
2022/03/12 05:59:22;;;;;;;6.68;3.67;;;;;;;-6.08;63.93;99148.88;4171028;28;20267;-71
2022/03/12 06:01:23;;;;;;;5.32;3.45;;;;;;;-6.10;64.04;99151.84;4171243;28;20041;-71
2022/03/12 06:03:24;;;;;;;8.10;3.53;;;;;;;-6.08;63.00;99151.56;4171052;28;20285;-71
2022/03/12 06:05:24;;;;;;;7.47;3.10;;;;;;;-6.07;63.03;99148.63;4172107;28;20301;-71
2022/03/12 06:07:26;;;;;;;6.95;3.72;;;;;;;-6.04;63.92;99152.69;4185350;28;20045;-71
2022/03/12 06:09:26;;;;;;;14.02;5.97;;;;;;;-6.01;64.36;99154.88;4171837;28;20124;-71
2022/03/12 06:11:27;;;;;;;22.45;8.65;;;;;;;-6.01;63.96;99150.31;4172552;28;20134;-71
2022/03/12 06:13:28;;;;;;;17.42;8.82;;;;;;;-5.92;65.00;99161.44;4169188;28;20063;-71
2022/03/12 06:15:29;;;;;;;17.33;8.32;;;;;;;-5.85;65.19;99153.94;4168190;28;20045;-71
2022/03/12 06:17:30;;;;;;;14.85;7.65;;;;;;;-5.78;65.32;99157.25;4165924;28;20095;-71
2022/03/12 06:19:31;;;;;;;10.23;5.05;;;;;;;-5.73;63.97;99164.56;4168211;28;20361;-71
2022/03/12 06:21:31;;;;;;;11.35;4.15;;;;;;;-5.67;64.58;99167.06;4165865;28;20044;-71
2022/03/12 06:23:32;;;;;;;9.50;4.60;;;;;;;-5.59;65.09;99170.34;4169268;28;20116;-71
2022/03/12 06:25:33;;;;;;;6.03;3.55;;;;;;;-5.55;65.69;99174.97;4171034;28;20037;-71
2022/03/12 06:27:33;;;;;;;4.47;3.25;;;;;;;-5.51;64.97;99173.41;4177592;28;20377;-71
2022/03/12 06:29:35;;;;;;;7.13;3.50;;;;;;;-5.40;64.80;99176.97;4171119;28;20440;-71
2022/03/12 06:31:35;;;;;;;6.03;3.40;;;;;;;-5.35;65.20;99171.66;4170534;28;20037;-71
2022/03/12 06:33:35;;;;;;;4.72;3.38;;;;;;;-5.29;64.59;99173.31;4170848;28;20499;-71
2022/03/12 06:35:36;;;;;;;5.20;3.33;;;;;;;-5.22;64.04;99178.47;4170223;28;20041;-71
2022/03/12 06:37:38;;;;;;;6.90;3.63;;;;;;;-5.15;63.91;99177.19;4169965;28;20277;-71
2022/03/12 06:39:38;;;;;;;11.43;4.22;;;;;;;-5.05;63.99;99181.03;4171457;28;20110;-71
2022/03/12 06:41:39;;;;;;;16.88;5.10;;;;;;;-4.89;62.92;99182.75;4170500;28;20044;-71
2022/03/12 06:43:42;;;;;;;10.70;4.47;;;;;;;-4.75;61.68;99181.25;4108352;28;20462;-71
2022/03/12 06:45:42;;;;;;;8.93;4.20;;;;;;;-4.66;61.12;99184.25;4167807;28;20068;-71
2022/03/12 06:47:46;;;;;;;12.50;4.22;;;;;;;-4.51;60.44;99187.03;4170262;28;20041;-71
2022/03/12 06:49:46;;;;;;;8.77;3.97;;;;;;;-4.39;60.06;99190.34;4170482;28;20053;-71
2022/03/12 06:51:46;;;;;;;9.52;4.13;;;;;;;-4.32;59.56;99190.91;4169409;28;20435;-71
2022/03/12 06:53:47;;;;;;;9.05;3.80;;;;;;;-4.22;59.67;99189.31;4167324;28;20178;-71
2022/03/12 06:55:47;;;;;;;11.13;3.72;;;;;;;-4.14;59.72;99195.03;4168191;28;20067;-71
2022/03/12 06:57:49;;;;;;;9.63;3.70;;;;;;;-4.06;58.96;99191.81;4175258;28;20068;-71
2022/03/12 06:59:50;;;;;;;8.57;3.80;;;;;;;-3.98;58.44;99191.31;4172926;28;20051;-71
2022/03/12 07:01:50;;;;;;;6.78;3.45;;;;;;;-3.89;57.71;99199.72;4171114;28;20076;-71
2022/03/12 07:03:50;;;;;;;9.75;3.92;;;;;;;-3.79;57.19;99191.66;4170361;28;20542;-71
2022/03/12 07:05:52;;;;;;;6.38;4.20;;;;;;;-3.71;56.44;99193.03;4172512;28;20072;-70
2022/03/12 07:07:53;;;;;;;12.23;5.18;;;;;;;-3.62;55.90;99185.19;4171114;28;20049;-71
2022/03/12 07:09:53;;;;;;;9.73;4.80;;;;;;;-3.58;54.89;99192.50;4171330;28;20040;-71
2022/03/12 07:11:58;;;;;;;6.90;4.20;;;;;;;-3.51;54.41;99187.63;4175623;28;20165;-71
2022/03/12 07:13:59;;;;;;;6.55;3.72;;;;;;;-3.44;54.29;99182.78;4184628;28;20089;-71
2022/03/12 07:16:00;;;;;;;6.47;3.85;;;;;;;-3.35;54.58;99182.25;4174486;28;20052;-71
2022/03/12 07:18:01;;;;;;;7.63;3.42;;;;;;;-3.22;56.96;99187.13;4165282;28;20045;-72
2022/03/12 07:20:03;;;;;;;11.07;5.38;;;;;;;-3.13;56.20;99180.91;4166169;28;20492;-71
2022/03/12 07:22:04;;;;;;;18.38;7.53;;;;;;;-3.07;54.19;99187.09;4166260;28;20029;-71
2022/03/12 07:24:05;;;;;;;18.10;7.13;;;;;;;-2.96;55.58;99186.03;4167305;28;20053;-71
2022/03/12 07:26:05;;;;;;;26.15;9.32;;;;;;;-2.91;54.09;99183.31;4166927;28;20043;-71
2022/03/12 07:28:06;;;;;;;23.88;9.35;;;;;;;-2.89;53.52;99185.75;4165766;28;20375;-71
2022/03/12 07:30:08;;;;;;;21.33;8.93;;;;;;;-2.86;53.47;99180.59;4164256;28;20029;-71
2022/03/12 07:32:09;;;;;;;17.90;6.75;;;;;;;-2.78;52.43;99181.94;4174905;28;20575;-71
2022/03/12 07:34:09;;;;;;;12.20;5.68;;;;;;;-2.73;52.33;99183.81;4171547;28;20039;-71
2022/03/12 07:36:09;;;;;;;11.93;5.78;;;;;;;-2.72;52.20;99188.97;4172508;28;20040;-71
2022/03/12 07:38:10;;;;;;;10.20;4.75;;;;;;;-2.71;51.74;99187.09;4167649;28;20052;-71
2022/03/12 07:40:13;;;;;;;11.40;5.65;;;;;;;-2.67;51.25;99188.16;4167924;28;20133;-71
2022/03/12 07:42:14;;;;;;;7.30;4.25;;;;;;;-2.65;50.21;99180.56;4168609;28;20052;-71
2022/03/12 07:44:14;;;;;;;9.63;5.00;;;;;;;-2.63;50.94;99184.63;4167252;28;20024;-71
2022/03/12 07:46:15;;;;;;;8.15;5.10;;;;;;;-2.59;50.07;99188.41;4179919;28;20113;-71
2022/03/12 07:48:15;;;;;;;9.15;5.57;;;;;;;-2.58;51.39;99181.88;4171913;28;20029;-71
2022/03/12 07:50:15;;;;;;;15.68;6.10;;;;;;;-2.57;50.98;99183.50;4168803;28;20453;-71
2022/03/12 07:52:16;;;;;;;12.77;6.20;;;;;;;-2.51;50.45;99180.78;4169938;28;20457;-71
2022/03/12 07:54:17;;;;;;;11.57;5.90;;;;;;;-2.48;51.63;99180.25;4173558;28;20029;-71
2022/03/12 07:56:17;;;;;;;15.88;7.05;;;;;;;-2.48;51.82;99177.53;4173000;28;20113;-71
2022/03/12 07:58:18;;;;;;;16.42;9.13;;;;;;;-2.43;50.97;99181.03;4170594;28;20056;-71
2022/03/12 08:00:19;;;;;;;17.60;10.30;;;;;;;-2.40;52.06;99185.94;4168967;28;20771;-71
2022/03/12 08:02:20;;;;;;;17.85;10.27;;;;;;;-2.37;50.52;99188.06;4168864;28;20840;-71
2022/03/12 08:04:21;;;;;;;19.55;8.35;;;;;;;-2.32;50.70;99181.81;4172108;28;20041;-71
2022/03/12 08:06:21;;;;;;;12.13;6.68;;;;;;;-2.28;51.07;99183.72;4176801;28;20045;-71
2022/03/12 08:08:22;;;;;;;12.60;7.07;;;;;;;-2.21;50.59;99185.31;4173412;28;20130;-71
2022/03/12 08:10:24;;;;;;;9.77;5.60;;;;;;;-2.18;50.23;99190.19;4169409;28;20070;-71
2022/03/12 08:12:26;;;;;;;10.57;6.50;;;;;;;-2.13;50.41;99187.47;4171981;28;20449;-71
2022/03/12 08:14:27;;;;;;;14.88;6.78;;;;;;;-2.11;50.22;99186.06;4177928;28;20412;-71
2022/03/12 08:16:33;;;;;;;19.45;9.02;;;;;;;-2.04;50.22;99196.63;4172309;28;20285;-71
2022/03/12 08:18:33;;;;;;;20.27;10.25;;;;;;;-1.97;50.03;99191.72;4170080;28;20056;-71
2022/03/12 08:20:34;;;;;;;19.15;9.13;;;;;;;-1.95;50.07;99194.97;4173977;28;20198;-71
2022/03/12 08:22:36;;;;;;;29.88;14.70;;;;;;;-1.90;50.15;99196.81;4172030;28;20086;-71
2022/03/12 08:24:37;;;;;;;33.85;15.75;;;;;;;-1.85;49.78;99189.47;4171107;28;20049;-71
2022/03/12 08:26:41;;;;;;;37.08;16.60;;;;;;;-1.74;48.60;99190.22;4172579;28;20043;-71
2022/03/12 08:28:42;;;;;;;36.05;16.38;;;;;;;-1.66;48.57;99184.22;4174915;28;20081;-71
2022/03/12 08:30:42;;;;;;;56.20;20.60;;;;;;;-1.57;48.64;99187.13;4169005;28;20063;-71
2022/03/12 08:32:43;;;;;;;43.05;17.70;;;;;;;-1.52;48.74;99181.69;4174946;28;20041;-71
2022/03/12 08:34:43;;;;;;;39.50;15.98;;;;;;;-1.48;49.42;99180.88;4177523;28;20302;-71
2022/03/12 08:36:44;;;;;;;37.10;17.50;;;;;;;-1.42;49.57;99189.75;4171679;28;20247;-71
2022/03/12 08:38:45;;;;;;;34.92;16.38;;;;;;;-1.34;48.58;99174.78;4169620;28;20106;-71
2022/03/12 08:40:46;;;;;;;36.25;15.07;;;;;;;-1.26;48.41;99177.69;4177390;28;20048;-71
2022/03/12 08:42:47;;;;;;;29.52;12.93;;;;;;;-1.16;48.35;99180.34;4176865;28;20311;-71
2022/03/12 08:44:48;;;;;;;30.35;12.20;;;;;;;-1.02;48.08;99166.09;4176240;28;20052;-71
2022/03/12 08:46:48;;;;;;;24.70;10.90;;;;;;;-0.94;48.20;99166.28;4174948;28;20056;-71
2022/03/12 08:48:49;;;;;;;27.92;10.88;;;;;;;-0.82;47.99;99176.00;4176607;28;20045;-71
2022/03/12 08:50:49;;;;;;;36.63;14.38;;;;;;;-0.72;47.69;99173.97;4178373;28;20323;-71
2022/03/12 08:52:50;;;;;;;28.05;10.88;;;;;;;-0.60;47.49;99165.41;4176671;28;20044;-71
2022/03/12 08:54:50;;;;;;;32.80;12.75;;;;;;;-0.42;48.21;99172.03;4178052;28;20049;-70
2022/03/12 08:56:50;;;;;;;37.90;15.32;;;;;;;-0.30;47.89;99172.44;4175536;28;20085;-70
2022/03/12 08:58:51;;;;;;;18.05;8.85;;;;;;;-0.14;47.96;99173.06;4177803;28;20491;-71
2022/03/12 09:00:52;;;;;;;13.57;6.32;;;;;;;0.03;48.05;99165.22;4176946;28;20045;-71
2022/03/12 09:02:52;;;;;;;11.73;5.40;;;;;;;0.23;47.28;99162.22;4177805;28;20037;-71
2022/03/12 09:04:53;;;;;;;13.68;6.07;;;;;;;0.43;46.34;99166.59;4174048;28;20128;-71
2022/03/12 09:06:53;;;;;;;10.50;5.35;;;;;;;0.69;44.20;99158.03;4167576;28;20351;-71
2022/03/12 09:08:54;;;;;;;9.85;4.22;;;;;;;0.89;42.27;99160.41;4169640;28;20469;-71
2022/03/12 09:10:55;;;;;;;8.80;4.55;;;;;;;1.12;39.87;99159.47;4176552;28;20049;-70
2022/03/12 09:12:56;;;;;;;42.15;18.60;;;;;;;1.42;38.09;99151.88;4167805;28;20037;-70
2022/03/12 09:14:57;;;;;;;21.67;9.50;;;;;;;1.68;38.01;99152.19;4167840;28;20292;-71
2022/03/12 09:16:57;;;;;;;19.45;6.60;;;;;;;1.78;40.56;99157.44;4168266;28;20040;-71
2022/03/12 09:18:57;;;;;;;6.53;3.72;;;;;;;1.90;36.81;99159.66;4165857;28;20044;-71
2022/03/12 09:20:58;;;;;;;7.78;3.53;;;;;;;2.04;37.22;99162.38;4173825;28;20037;-70
2022/03/12 09:22:58;;;;;;;8.48;3.55;;;;;;;2.15;36.36;99161.88;4167603;28;20056;-70
2022/03/12 09:25:03;;;;;;;11.18;6.72;;;;;;;2.32;36.92;99153.03;4173811;28;20128;-71
2022/03/12 09:27:04;;;;;;;10.10;4.40;;;;;;;2.43;35.34;99145.41;4174238;28;20057;-70
2022/03/12 09:29:04;;;;;;;5.75;3.55;;;;;;;2.52;33.88;99138.09;4178806;28;20051;-70